Time;durP1;ratioP1;P1;durP2;ratioP2;P2;SDS_P1;SDS_P2;PMS_P1;PMS_P2;Temp;Humidity;BMP_temperature;BMP_pressure;BME280_temperature;BME280_humidity;BME280_pressure;Samples;Min_cycle;Max_cycle;Signal;HPM_P1;HPM_P2
2021/03/05 00:00:45;;;;;;;;;;;3.90;99.90;;;;;;4947949;28;19973;-76
2021/03/05 00:03:11;;;;;;;;;;;3.90;99.90;;;;;;4948787;28;19966;-77
2021/03/05 00:05:37;;;;;;;;;;;4.00;99.90;;;;;;4941206;28;19914;-77
2021/03/05 00:08:03;;;;;;;;;;;3.90;99.90;;;;;;4950605;28;20448;-76
2021/03/05 00:10:33;;;;;;;;;;;3.90;99.90;;;;;;4949090;29;19910;-77
2021/03/05 00:12:59;;;;;;;;;;;4.00;99.90;;;;;;4938549;28;19977;-77
2021/03/05 00:15:26;;;;;;;;;;;3.90;99.90;;;;;;4963079;28;19922;-76
2021/03/05 00:17:54;;;;;;;;;;;3.90;99.90;;;;;;4947572;28;19918;-76
2021/03/05 00:20:21;;;;;;;;;;;3.90;99.90;;;;;;4947589;28;19918;-77
2021/03/05 00:22:46;;;;;;;;;;;3.90;99.90;;;;;;4947173;28;19918;-77
2021/03/05 00:25:12;;;;;;;;;;;4.00;99.90;;;;;;4948335;28;19910;-77
2021/03/05 00:27:37;;;;;;;;;;;4.00;99.90;;;;;;4951670;28;19929;-78
2021/03/05 00:30:04;;;;;;;;;;;4.00;99.90;;;;;;4945912;29;19914;-77
2021/03/05 00:32:30;;;;;;;;;;;4.00;99.90;;;;;;4948691;28;19922;-77
2021/03/05 00:34:55;;;;;;;;;;;4.00;99.90;;;;;;4946808;29;20276;-77
2021/03/05 00:37:21;;;;;;;;;;;4.00;99.90;;;;;;4946817;29;19914;-77
2021/03/05 00:39:49;;;;;;;;;;;4.00;99.90;;;;;;4949896;28;20494;-77
2021/03/05 00:42:16;;;;;;;;;;;4.00;99.90;;;;;;4951747;28;19921;-77
2021/03/05 00:44:44;;;;;;;;;;;4.00;99.90;;;;;;4946010;28;19911;-77
2021/03/05 00:47:12;;;;;;;;;;;4.10;99.90;;;;;;4965263;28;19910;-77
2021/03/05 00:49:40;;;;;;;;;;;4.00;99.90;;;;;;4946894;29;20052;-77
2021/03/05 00:52:08;;;;;;;;;;;4.00;99.90;;;;;;4951921;28;20012;-76
2021/03/05 00:54:33;;;;;;;;;;;3.90;99.90;;;;;;4944911;29;19930;-77
2021/03/05 00:56:59;;;;;;;;;;;3.90;99.90;;;;;;4949799;28;19910;-77
2021/03/05 00:59:26;;;;;;;;;;;3.90;99.90;;;;;;4948904;28;20417;-76
2021/03/05 01:01:52;;;;;;;;;;;3.90;99.90;;;;;;4944154;29;20457;-77
2021/03/05 01:04:32;;;;;;;;;;;3.90;99.90;;;;;;4948855;29;19921;-77
2021/03/05 01:07:00;;;;;;;;;;;3.80;99.90;;;;;;4948280;28;19918;-77
2021/03/05 01:09:28;;;;;;;;;;;3.90;99.90;;;;;;4948709;29;19910;-77
2021/03/05 01:11:53;;;;;;;;;;;3.90;99.90;;;;;;4964958;28;19989;-77
2021/03/05 01:14:19;;;;;;;;;;;3.90;99.90;;;;;;4954562;28;20328;-77
2021/03/05 01:16:47;;;;;;;;;;;3.90;99.90;;;;;;4948023;28;19918;-77
2021/03/05 01:19:13;;;;;;;;;;;3.90;99.90;;;;;;4948314;29;19910;-77
2021/03/05 01:21:39;;;;;;;;;;;3.90;99.90;;;;;;4949400;29;19911;-77
2021/03/05 01:24:07;;;;;;;;;;;3.90;99.90;;;;;;4946060;28;19983;-77
2021/03/05 01:26:33;;;;;;;;;;;3.90;99.90;;;;;;4950261;28;19957;-77
2021/03/05 01:29:01;;;;;;;;;;;3.90;99.90;;;;;;4954297;28;19958;-77
2021/03/05 01:31:26;;;;;;;;;;;3.90;99.90;;;;;;4949555;28;19981;-77
2021/03/05 01:33:52;;;;;;;;;;;3.90;99.90;;;;;;4948002;28;20408;-77
2021/03/05 01:36:17;;;;;;;;;;;3.90;99.90;;;;;;4944787;29;19922;-77
2021/03/05 01:38:45;;;;;;;;;;;3.90;99.90;;;;;;4945352;29;19921;-77
2021/03/05 01:41:11;;;;;;;;;;;4.00;99.90;;;;;;4947674;28;20391;-77
2021/03/05 01:43:37;;;;;;;;;;;3.90;99.90;;;;;;4947569;29;19918;-77
2021/03/05 01:46:03;;;;;;;;;;;3.90;99.90;;;;;;4947496;28;19918;-77
2021/03/05 01:48:28;;;;;;;;;;;3.90;99.90;;;;;;4930250;29;19992;-77
2021/03/05 01:51:00;;;;;;;;;;;3.90;99.90;;;;;;4942460;29;19979;-77
2021/03/05 01:53:29;;;;;;;;;;;3.90;99.90;;;;;;4946395;29;19910;-77
2021/03/05 01:55:57;;;;;;;;;;;3.90;99.90;;;;;;4965672;28;19968;-77
2021/03/05 01:58:23;;;;;;;;;;;4.00;99.90;;;;;;4943571;29;19942;-77
2021/03/05 02:00:52;;;;;;;;;;;3.90;99.90;;;;;;4946605;29;19936;-77
2021/03/05 02:03:18;;;;;;;;;;;4.00;99.90;;;;;;4949990;28;19923;-77
2021/03/05 02:05:46;;;;;;;;;;;4.00;99.90;;;;;;4948256;28;20049;-77
2021/03/05 02:08:12;;;;;;;;;;;4.00;99.90;;;;;;4951840;28;19972;-77
2021/03/05 02:10:40;;;;;;;;;;;4.00;99.90;;;;;;4948745;29;19915;-77
2021/03/05 02:13:05;;;;;;;;;;;4.00;99.90;;;;;;4951528;28;19925;-77
2021/03/05 02:15:31;;;;;;;;;;;4.00;99.90;;;;;;4933280;29;20260;-77
2021/03/05 02:18:00;;;;;;;;;;;4.10;99.90;;;;;;4951543;28;19921;-77
2021/03/05 02:20:36;;;;;;;;;;;4.10;99.90;;;;;;4947882;29;20008;-77
2021/03/05 02:23:20;;;;;;;;;;;4.10;99.90;;;;;;4949992;28;19914;-77
2021/03/05 02:26:05;;;;;;;;;;;4.10;99.90;;;;;;4950300;29;19910;-77
2021/03/05 02:28:33;;;;;;;;;;;4.10;99.90;;;;;;4948509;29;19914;-77
2021/03/05 02:31:18;;;;;;;;;;;4.10;99.90;;;;;;4947718;29;19996;-77
2021/03/05 02:33:56;;;;;;;;;;;4.20;99.90;;;;;;4951786;29;19973;-77
2021/03/05 02:36:27;;;;;;;;;;;4.20;99.90;;;;;;4944885;29;19922;-77
2021/03/05 02:39:20;;;;;;;;;;;4.10;99.90;;;;;;4951848;29;19918;-77
2021/03/05 02:41:47;;;;;;;;;;;4.10;99.90;;;;;;4949824;28;19929;-78
2021/03/05 02:44:14;;;;;;;;;;;4.00;99.90;;;;;;4950210;28;19914;-78
2021/03/05 02:46:42;;;;;;;;;;;4.00;99.90;;;;;;4950711;28;19910;-78
2021/03/05 02:49:10;;;;;;;;;;;4.00;99.90;;;;;;4952524;29;19973;-78
2021/03/05 02:51:38;;;;;;;;;;;4.00;99.90;;;;;;4951699;29;20237;-78
2021/03/05 02:54:04;;;;;;;;;;;4.00;99.90;;;;;;4949625;28;20337;-77
2021/03/05 02:56:30;;;;;;;;;;;4.00;99.90;;;;;;4948388;29;19921;-78
2021/03/05 02:58:55;;;;;;;;;;;4.00;99.90;;;;;;4948423;29;19910;-78
2021/03/05 03:01:24;;;;;;;;;;;4.00;99.90;;;;;;4952669;28;19938;-78
2021/03/05 03:03:50;;;;;;;;;;;3.90;99.90;;;;;;4966131;28;19918;-78
2021/03/05 03:06:18;;;;;;;;;;;3.90;99.90;;;;;;4950527;29;20425;-78
2021/03/05 03:08:46;;;;;;;;;;;3.80;99.90;;;;;;4951669;29;19910;-78
2021/03/05 03:11:14;;;;;;;;;;;3.90;99.90;;;;;;4955548;28;20308;-78
2021/03/05 03:13:40;;;;;;;;;;;3.80;99.90;;;;;;4948894;28;19914;-78
2021/03/05 03:16:08;;;;;;;;;;;3.80;99.90;;;;;;4950809;28;19926;-78
2021/03/05 03:18:33;;;;;;;;;;;3.80;99.90;;;;;;4963682;28;19950;-78
2021/03/05 03:20:59;;;;;;;;;;;3.80;99.90;;;;;;4933450;29;19962;-78
2021/03/05 03:23:25;;;;;;;;;;;3.70;99.90;;;;;;4951486;28;20009;-78
2021/03/05 03:25:53;;;;;;;;;;;3.70;99.90;;;;;;4949445;29;20481;-77
2021/03/05 03:28:19;;;;;;;;;;;3.70;99.90;;;;;;4948228;29;19910;-78
2021/03/05 03:30:44;;;;;;;;;;;3.60;99.90;;;;;;4952240;28;19925;-78
2021/03/05 03:33:15;;;;;;;;;;;3.60;99.90;;;;;;4950826;29;20021;-78
2021/03/05 03:35:42;;;;;;;;;;;3.60;99.90;;;;;;4937070;29;19989;-78
2021/03/05 03:38:09;;;;;;;;;;;3.60;99.90;;;;;;4946224;29;20330;-78
2021/03/05 03:40:36;;;;;;;;;;;3.50;99.90;;;;;;4950157;29;20175;-78
2021/03/05 03:43:03;;;;;;;;;;;3.50;99.90;;;;;;4948145;29;20001;-78
2021/03/05 03:45:31;;;;;;;;;;;3.50;99.90;;;;;;4950018;29;20016;-77
2021/03/05 03:47:59;;;;;;;;;;;3.50;99.90;;;;;;4948815;29;19910;-78
2021/03/05 03:50:28;;;;;;;;;;;3.50;99.90;;;;;;4949532;29;20029;-78
2021/03/05 03:52:55;;;;;;;;;;;3.50;99.90;;;;;;4949447;29;19921;-77
2021/03/05 03:55:20;;;;;;;;;;;3.50;99.90;;;;;;4965993;28;20348;-78
2021/03/05 03:57:48;;;;;;;;;;;3.40;99.90;;;;;;4950165;28;19910;-78
2021/03/05 04:00:14;;;;;;;;;;;3.40;99.90;;;;;;4945329;29;19921;-77
2021/03/05 04:02:40;;;;;;;;;;;3.40;99.90;;;;;;4950726;29;19922;-78
2021/03/05 04:05:07;;;;;;;;;;;3.40;99.90;;;;;;4949569;29;19922;-78
2021/03/05 04:07:32;;;;;;;;;;;3.40;99.90;;;;;;4947007;28;19962;-78
2021/03/05 04:09:59;;;;;;;;;;;3.40;99.90;;;;;;4949520;28;19960;-78
2021/03/05 04:12:29;;;;;;;;;;;3.40;99.90;;;;;;4949484;28;19924;-78
2021/03/05 04:14:55;;;;;;;;;;;3.40;99.90;;;;;;4950518;29;19914;-78
2021/03/05 04:17:23;;;;;;;;;;;3.40;99.90;;;;;;4950805;28;20000;-78
2021/03/05 04:19:53;;;;;;;;;;;3.40;99.90;;;;;;4950047;29;19921;-77
2021/03/05 04:22:18;;;;;;;;;;;3.40;99.90;;;;;;4948218;28;19949;-77
2021/03/05 04:24:44;;;;;;;;;;;3.40;99.90;;;;;;4964429;28;20465;-78
2021/03/05 04:27:12;;;;;;;;;;;3.30;99.90;;;;;;4949503;29;19910;-77
2021/03/05 04:29:37;;;;;;;;;;;3.40;99.90;;;;;;4948587;28;20352;-77
2021/03/05 04:32:03;;;;;;;;;;;3.40;99.90;;;;;;4953660;28;19932;-77
2021/03/05 04:34:29;;;;;;;;;;;3.30;99.90;;;;;;4947329;29;20006;-78
2021/03/05 04:36:54;;;;;;;;;;;3.40;99.90;;;;;;4949055;29;19914;-77
2021/03/05 04:39:20;;;;;;;;;;;3.30;99.90;;;;;;4948700;29;20366;-77
2021/03/05 04:41:45;;;;;;;;;;;3.30;99.90;;;;;;4950737;28;19910;-77
2021/03/05 04:44:13;;;;;;;;;;;3.40;99.90;;;;;;4949108;28;19918;-77
2021/03/05 04:46:43;;;;;;;;;;;3.30;99.90;;;;;;4949056;28;19929;-78
2021/03/05 04:49:11;;;;;;;;;;;3.30;99.90;;;;;;4959951;28;20069;-77
2021/03/05 04:51:39;;;;;;;;;;;3.30;99.90;;;;;;4947911;29;19914;-77
2021/03/05 04:54:05;;;;;;;;;;;3.30;99.90;;;;;;4951155;28;19991;-77
2021/03/05 04:56:30;;;;;;;;;;;3.20;99.90;;;;;;4949748;28;20493;-77
2021/03/05 04:58:56;;;;;;;;;;;3.30;99.90;;;;;;4949420;29;19981;-77
2021/03/05 05:01:23;;;;;;;;;;;3.30;99.90;;;;;;4947061;29;20066;-77
2021/03/05 05:03:49;;;;;;;;;;;3.20;99.90;;;;;;4948937;28;19953;-77
2021/03/05 05:06:14;;;;;;;;;;;3.20;99.90;;;;;;4948384;28;20008;-77
2021/03/05 05:08:40;;;;;;;;;;;3.20;99.90;;;;;;4948924;29;19915;-77
2021/03/05 05:11:08;;;;;;;;;;;3.30;99.90;;;;;;4949831;28;19915;-77
2021/03/05 05:13:33;;;;;;;;;;;3.20;99.90;;;;;;4949350;29;19967;-77
2021/03/05 05:15:59;;;;;;;;;;;3.20;99.90;;;;;;4946163;29;19926;-77
2021/03/05 05:18:24;;;;;;;;;;;3.20;99.90;;;;;;4946695;28;20010;-77
2021/03/05 05:20:50;;;;;;;;;;;3.20;99.90;;;;;;4946963;28;19937;-77
2021/03/05 05:23:18;;;;;;;;;;;3.30;99.90;;;;;;4948439;28;20256;-77
2021/03/05 05:25:43;;;;;;;;;;;3.20;99.90;;;;;;4948917;29;20384;-77
2021/03/05 05:28:09;;;;;;;;;;;3.20;99.90;;;;;;4946385;29;19915;-77
2021/03/05 05:30:37;;;;;;;;;;;3.20;99.90;;;;;;4947917;28;19914;-76
2021/03/05 05:33:04;;;;;;;;;;;3.20;99.90;;;;;;4947602;29;19918;-77
2021/03/05 05:35:30;;;;;;;;;;;3.20;99.90;;;;;;4947578;28;19915;-77
2021/03/05 05:37:58;;;;;;;;;;;3.20;99.90;;;;;;4945414;29;19941;-77
2021/03/05 05:40:23;;;;;;;;;;;3.20;99.90;;;;;;4950550;28;19914;-77
2021/03/05 05:42:49;;;;;;;;;;;3.20;99.90;;;;;;4951750;29;20407;-77
2021/03/05 05:45:15;;;;;;;;;;;3.20;99.90;;;;;;4950608;28;19918;-77
2021/03/05 05:47:43;;;;;;;;;;;3.10;99.90;;;;;;4951142;29;19914;-77
2021/03/05 05:50:10;;;;;;;;;;;3.10;99.90;;;;;;4948400;28;19915;-77
2021/03/05 05:52:38;;;;;;;;;;;3.20;99.90;;;;;;4968563;28;19930;-77
2021/03/05 05:55:04;;;;;;;;;;;3.20;99.90;;;;;;4951634;28;19925;-77
2021/03/05 05:57:30;;;;;;;;;;;3.20;99.90;;;;;;4950097;29;19911;-77
2021/03/05 05:59:59;;;;;;;;;;;3.20;99.90;;;;;;4953287;29;19960;-77
2021/03/05 06:02:24;;;;;;;;;;;3.20;99.90;;;;;;4950608;28;19966;-77
2021/03/05 06:04:55;;;;;;;;;;;3.20;99.90;;;;;;4932235;29;20004;-77
2021/03/05 06:07:23;;;;;;;;;;;3.20;99.90;;;;;;4950390;29;19921;-77
2021/03/05 06:09:52;;;;;;;;;;;3.30;99.90;;;;;;4950148;29;19966;-77
2021/03/05 06:12:25;;;;;;;;;;;3.30;99.90;;;;;;4858090;28;10000183;-77
2021/03/05 06:14:53;;;;;;;;;;;3.30;99.90;;;;;;4950933;28;19907;-77
2021/03/05 06:17:21;;;;;;;;;;;3.30;99.90;;;;;;4950993;28;19914;-77
2021/03/05 06:19:48;;;;;;;;;;;3.30;99.90;;;;;;4951260;28;19917;-77
2021/03/05 06:22:20;;;;;;;;;;;3.30;99.90;;;;;;4948888;29;19930;-77
2021/03/05 06:24:48;;;;;;;;;;;3.40;99.90;;;;;;4952973;29;19925;-78
2021/03/05 06:27:16;;;;;;;;;;;3.40;99.90;;;;;;4953265;29;20744;-78
2021/03/05 06:29:42;;;;;;;;;;;3.50;99.90;;;;;;4950629;29;19921;-77
2021/03/05 06:32:11;;;;;;;;;;;3.50;99.90;;;;;;4951189;28;20384;-77
2021/03/05 06:34:46;;;;;;;;;;;3.50;99.90;;;;;;4970342;28;19914;-77
2021/03/05 06:37:11;;;;;;;;;;;3.60;99.90;;;;;;4949131;28;19981;-77
2021/03/05 06:39:37;;;;;;;;;;;3.60;99.90;;;;;;4946687;29;19918;-77
2021/03/05 06:42:06;;;;;;;;;;;3.60;99.90;;;;;;4949667;29;19914;-77
2021/03/05 06:44:31;;;;;;;;;;;3.60;99.90;;;;;;4953276;29;19965;-77
2021/03/05 06:46:57;;;;;;;;;;;3.60;99.90;;;;;;4951246;28;20009;-77
2021/03/05 06:49:23;;;;;;;;;;;3.60;99.90;;;;;;4930559;29;19922;-77
2021/03/05 06:51:52;;;;;;;;;;;3.70;99.90;;;;;;4951653;28;19925;-77
2021/03/05 06:54:19;;;;;;;;;;;3.70;99.90;;;;;;4948370;29;19915;-77
2021/03/05 06:56:50;;;;;;;;;;;3.70;99.90;;;;;;4949410;29;19918;-77
2021/03/05 06:59:19;;;;;;;;;;;3.60;99.90;;;;;;4962986;28;19911;-77
2021/03/05 07:01:46;;;;;;;;;;;3.60;99.90;;;;;;4948173;28;20139;-77
2021/03/05 07:04:12;;;;;;;;;;;3.60;99.90;;;;;;4950185;29;19919;-76
2021/03/05 07:06:41;;;;;;;;;;;3.60;99.90;;;;;;4955368;28;19910;-77
2021/03/05 07:09:07;;;;;;;;;;;3.50;99.90;;;;;;4967774;28;19922;-77
2021/03/05 07:11:33;;;;;;;;;;;3.50;99.90;;;;;;4948788;28;19978;-77
2021/03/05 07:14:01;;;;;;;;;;;3.40;99.90;;;;;;4949804;28;20388;-77
2021/03/05 07:16:29;;;;;;;;;;;3.50;99.90;;;;;;4951064;28;19918;-76
2021/03/05 07:18:54;;;;;;;;;;;3.50;99.90;;;;;;4948636;28;19921;-76
2021/03/05 07:21:20;;;;;;;;;;;3.40;99.90;;;;;;4948250;29;19914;-74
2021/03/05 07:23:46;;;;;;;;;;;3.40;99.90;;;;;;4947820;28;20340;-74
2021/03/05 07:26:15;;;;;;;;;;;3.30;99.90;;;;;;4950312;28;19910;-77
2021/03/05 07:28:44;;;;;;;;;;;3.30;99.90;;;;;;4946613;28;19914;-77
2021/03/05 07:31:09;;;;;;;;;;;3.30;99.90;;;;;;4950841;29;20497;-77
2021/03/05 07:33:39;;;;;;;;;;;3.30;99.90;;;;;;4946235;28;19997;-77
2021/03/05 07:36:08;;;;;;;;;;;3.40;99.90;;;;;;4962141;28;19918;-77
2021/03/05 07:38:33;;;;;;;;;;;3.30;99.90;;;;;;4951213;28;19910;-77
2021/03/05 07:41:02;;;;;;;;;;;3.30;99.90;;;;;;4949684;29;19921;-77
2021/03/05 07:43:30;;;;;;;;;;;3.30;99.90;;;;;;4960005;28;20035;-77
2021/03/05 07:45:59;;;;;;;;;;;3.40;99.90;;;;;;4944948;29;19910;-77
2021/03/05 07:48:30;;;;;;;;;;;3.30;99.90;;;;;;4949360;28;19953;-77
2021/03/05 07:51:01;;;;;;;;;;;3.30;99.90;;;;;;4949672;29;19923;-76
2021/03/05 07:53:32;;;;;;;;;;;3.30;99.90;;;;;;4947439;28;20017;-77
2021/03/05 07:56:00;;;;;;;;;;;3.40;99.90;;;;;;4948359;29;19921;-77
2021/03/05 07:58:44;;;;;;;;;;;3.40;99.90;;;;;;4947918;29;19922;-77
2021/03/05 08:01:14;;;;;;;;;;;3.30;99.90;;;;;;4949778;29;19926;-78
2021/03/05 08:03:53;;;;;;;;;;;3.30;99.90;;;;;;4947643;28;19919;-77
2021/03/05 08:06:31;;;;;;;;;;;3.30;99.90;;;;;;4952455;28;19929;-77
2021/03/05 08:09:10;;;;;;;;;;;3.30;99.90;;;;;;4952291;28;19922;-77
2021/03/05 08:11:37;;;;;;;;;;;3.30;99.90;;;;;;4946431;29;19919;-78
2021/03/05 08:14:22;;;;;;;;;;;3.40;99.90;;;;;;4948969;29;19914;-78
2021/03/05 08:16:48;;;;;;;;;;;3.40;99.90;;;;;;4951982;28;20336;-77
2021/03/05 08:19:15;;;;;;;;;;;3.40;99.90;;;;;;4949275;28;19972;-77
2021/03/05 08:21:53;;;;;;;;;;;3.40;99.90;;;;;;4949688;28;20009;-77
2021/03/05 08:24:19;;;;;;;;;;;3.40;99.90;;;;;;4950775;29;19929;-77
2021/03/05 08:26:56;;;;;;;;;;;3.40;99.90;;;;;;4948931;28;19914;-77
2021/03/05 08:29:40;;;;;;;;;;;3.50;99.90;;;;;;4950613;28;19962;-77
2021/03/05 08:32:08;;;;;;;;;;;3.50;99.90;;;;;;4944560;29;19918;-77
2021/03/05 08:34:33;;;;;;;;;;;3.50;99.90;;;;;;4947559;29;19910;-77
2021/03/05 08:37:01;;;;;;;;;;;3.50;99.90;;;;;;4960667;28;19972;-77
2021/03/05 08:39:27;;;;;;;;;;;3.60;99.90;;;;;;4946462;29;19921;-77
2021/03/05 08:42:14;;;;;;;;;;;3.70;99.90;;;;;;4949533;28;19929;-77
2021/03/05 08:44:39;;;;;;;;;;;3.70;99.90;;;;;;4947449;29;20461;-78
2021/03/05 08:47:05;;;;;;;;;;;3.70;99.90;;;;;;4960017;28;20005;-77
2021/03/05 08:49:33;;;;;;;;;;;3.70;99.90;;;;;;4947110;29;19918;-77
2021/03/05 08:51:59;;;;;;;;;;;3.80;99.90;;;;;;4929111;29;19981;-77
2021/03/05 08:54:24;;;;;;;;;;;3.70;99.90;;;;;;4948116;28;19915;-77
2021/03/05 08:56:56;;;;;;;;;;;3.70;99.90;;;;;;4946683;29;20216;-77
2021/03/05 08:59:22;;;;;;;;;;;3.80;99.90;;;;;;4946397;29;19925;-77
2021/03/05 09:01:47;;;;;;;;;;;3.80;99.90;;;;;;4943995;29;20343;-77
2021/03/05 09:04:17;;;;;;;;;;;3.80;99.90;;;;;;4946883;29;19919;-77
2021/03/05 09:06:46;;;;;;;;;;;3.80;99.90;;;;;;4948468;29;19969;-77
2021/03/05 09:09:12;;;;;;;;;;;3.90;99.90;;;;;;4944593;29;19926;-77
2021/03/05 09:11:39;;;;;;;;;;;3.90;99.90;;;;;;4945972;29;20014;-77
2021/03/05 09:14:24;;;;;;;;;;;3.90;99.90;;;;;;4948001;28;19914;-76
2021/03/05 09:17:02;;;;;;;;;;;3.90;99.90;;;;;;4948337;29;19925;-77
2021/03/05 09:19:34;;;;;;;;;;;3.90;99.90;;;;;;4946160;29;19934;-77
2021/03/05 09:22:06;;;;;;;;;;;3.80;99.90;;;;;;4965073;28;19911;-77
2021/03/05 09:24:51;;;;;;;;;;;3.80;99.90;;;;;;4951138;28;19918;-77
2021/03/05 09:27:17;;;;;;;;;;;3.80;99.90;;;;;;4961282;28;19911;-77
2021/03/05 09:29:44;;;;;;;;;;;3.80;99.90;;;;;;4948719;28;20276;-77
2021/03/05 09:32:12;;;;;;;;;;;3.70;99.90;;;;;;4948686;28;19975;-77
2021/03/05 09:34:57;;;;;;;;;;;3.70;99.90;;;;;;4945411;29;20476;-77
2021/03/05 09:37:25;;;;;;;;;;;3.80;99.90;;;;;;4964443;28;20001;-77
2021/03/05 09:39:51;;;;;;;;;;;3.80;99.90;;;;;;4960977;28;20411;-77
2021/03/05 09:42:26;;;;;;;;;;;3.80;99.90;;;;;;4963944;28;20004;-77
2021/03/05 09:44:52;;;;;;;;;;;3.70;99.90;;;;;;4964370;28;20336;-76
2021/03/05 09:47:17;;;;;;;;;;;3.70;99.90;;;;;;4950380;28;19921;-77
2021/03/05 09:49:43;;;;;;;;;;;3.80;99.90;;;;;;4948694;29;19910;-77
2021/03/05 09:52:24;;;;;;;;;;;3.80;99.90;;;;;;4945640;29;19914;-77
2021/03/05 09:54:50;;;;;;;;;;;3.80;99.90;;;;;;4946538;28;19921;-77
2021/03/05 09:57:18;;;;;;;;;;;3.80;99.90;;;;;;4947993;28;19910;-77
2021/03/05 09:59:45;;;;;;;;;;;3.80;99.90;;;;;;4943178;29;19918;-77
2021/03/05 10:02:11;;;;;;;;;;;3.90;99.90;;;;;;4951566;28;20001;-77
2021/03/05 10:04:45;;;;;;;;;;;3.90;99.90;;;;;;4963505;28;19997;-76
2021/03/05 10:07:11;;;;;;;;;;;3.90;99.90;;;;;;4943824;29;20397;-77
2021/03/05 10:09:39;;;;;;;;;;;3.90;99.90;;;;;;4948307;28;19911;-76
2021/03/05 10:12:04;;;;;;;;;;;3.80;99.90;;;;;;4948484;28;19915;-76
2021/03/05 10:14:36;;;;;;;;;;;3.80;99.90;;;;;;4963896;28;19918;-76
2021/03/05 10:17:08;;;;;;;;;;;3.70;99.90;;;;;;4948042;28;19950;-76
2021/03/05 10:19:35;;;;;;;;;;;3.70;99.90;;;;;;4943695;28;19914;-74
2021/03/05 10:22:04;;;;;;;;;;;3.60;99.90;;;;;;4947335;29;19921;-76
2021/03/05 10:24:32;;;;;;;;;;;3.70;99.90;;;;;;4945783;29;19919;-76
2021/03/05 10:27:18;;;;;;;;;;;3.80;99.90;;;;;;4945432;28;19918;-77
2021/03/05 10:29:50;;;;;;;;;;;3.80;99.90;;;;;;4948795;28;20000;-77
2021/03/05 10:32:25;;;;;;;;;;;4.00;99.90;;;;;;4951062;29;20320;-77
2021/03/05 10:34:52;;;;;;;;;;;4.20;99.90;;;;;;4956368;28;20163;-77
2021/03/05 10:37:20;;;;;;;;;;;4.50;99.90;;;;;;4949621;29;19910;-77
2021/03/05 10:39:45;;;;;;;;;;;4.70;95.30;;;;;;4950047;28;19915;-77
2021/03/05 10:42:14;;;;;;;;;;;4.80;97.10;;;;;;4950744;29;19933;-77
2021/03/05 10:44:40;;;;;;;;;;;4.90;98.50;;;;;;4950084;28;19977;-76
2021/03/05 10:47:08;;;;;;;;;;;5.00;95.90;;;;;;4948587;29;19914;-76
2021/03/05 10:49:34;;;;;;;;;;;5.00;93.90;;;;;;4950058;28;19961;-77
2021/03/05 10:52:00;;;;;;;;;;;5.00;93.10;;;;;;4947304;28;19958;-76
2021/03/05 10:54:26;;;;;;;;;;;5.10;98.70;;;;;;4951326;29;19910;-76
2021/03/05 10:56:51;;;;;;;;;;;5.00;92.10;;;;;;4948512;29;19918;-76
2021/03/05 10:59:20;;;;;;;;;;;5.00;94.10;;;;;;4949190;29;19953;-76
2021/03/05 11:01:46;;;;;;;;;;;5.00;92.70;;;;;;4948834;29;19962;-77
2021/03/05 11:04:14;;;;;;;;;;;5.00;92.70;;;;;;4946638;29;19946;-76
2021/03/05 11:06:42;;;;;;;;;;;5.10;91.20;;;;;;4945638;28;20001;-76
2021/03/05 11:09:09;;;;;;;;;;;5.20;91.80;;;;;;4951810;28;19919;-76
2021/03/05 11:11:43;;;;;;;;;;;5.30;90.50;;;;;;4949648;28;19929;-76
2021/03/05 11:14:10;;;;;;;;;;;5.40;91.60;;;;;;4951634;29;19980;-76
2021/03/05 11:16:35;;;;;;;;;;;5.60;88.70;;;;;;4929106;29;20002;-76
2021/03/05 11:19:03;;;;;;;;;;;5.80;90.00;;;;;;4964596;28;20009;-76
2021/03/05 11:21:31;;;;;;;;;;;5.90;84.90;;;;;;4963555;28;19914;-76
2021/03/05 11:23:59;;;;;;;;;;;6.00;91.50;;;;;;4950997;29;19910;-77
2021/03/05 11:26:27;;;;;;;;;;;6.10;82.90;;;;;;4951265;28;19941;-77
2021/03/05 11:28:53;;;;;;;;;;;6.40;92.30;;;;;;4949915;28;20064;-76
2021/03/05 11:31:23;;;;;;;;;;;6.80;89.60;;;;;;4949295;28;20320;-77
2021/03/05 11:33:49;;;;;;;;;;;7.00;83.60;;;;;;4953535;28;19910;-77
2021/03/05 11:36:14;;;;;;;;;;;7.20;81.40;;;;;;4948750;29;20077;-76
2021/03/05 11:38:43;;;;;;;;;;;7.30;88.80;;;;;;4948381;28;19915;-76
2021/03/05 11:41:09;;;;;;;;;;;7.70;81.20;;;;;;4944974;28;19914;-78
2021/03/05 11:43:38;;;;;;;;;;;8.00;78.30;;;;;;4946140;28;20644;-76
2021/03/05 11:46:04;;;;;;;;;;;8.30;78.50;;;;;;4948162;29;19928;-76
2021/03/05 11:48:31;;;;;;;;;;;8.20;84.60;;;;;;4949231;28;20416;-76
2021/03/05 11:50:57;;;;;;;;;;;8.20;82.10;;;;;;4961142;28;19937;-76
2021/03/05 11:53:22;;;;;;;;;;;8.10;73.00;;;;;;4950227;29;19910;-76
2021/03/05 11:55:50;;;;;;;;;;;7.80;74.00;;;;;;4950953;28;19919;-76
2021/03/05 11:58:16;;;;;;;;;;;7.30;73.20;;;;;;4950481;29;19910;-76
2021/03/05 12:00:41;;;;;;;;;;;6.90;75.30;;;;;;4948204;28;19977;-76
2021/03/05 12:03:09;;;;;;;;;;;6.60;76.30;;;;;;4945417;29;19910;-76
2021/03/05 12:05:39;;;;;;;;;;;6.30;78.60;;;;;;4950257;28;19960;-76
2021/03/05 12:08:07;;;;;;;;;;;6.20;80.00;;;;;;4964837;28;19938;-76
2021/03/05 12:10:38;;;;;;;;;;;5.90;80.50;;;;;;4947874;28;20001;-76
2021/03/05 12:13:08;;;;;;;;;;;5.80;78.90;;;;;;4947856;29;19926;-76
2021/03/05 12:15:33;;;;;;;;;;;5.70;80.60;;;;;;4950085;28;20271;-76
2021/03/05 12:18:01;;;;;;;;;;;5.60;82.00;;;;;;4962504;28;20014;-76
2021/03/05 12:20:29;;;;;;;;;;;5.60;84.60;;;;;;4950494;29;19910;-76
2021/03/05 12:22:55;;;;;;;;;;;5.50;82.10;;;;;;4949861;29;19918;-76
2021/03/05 12:25:20;;;;;;;;;;;5.50;83.50;;;;;;4947051;28;19997;-76
2021/03/05 12:27:48;;;;;;;;;;;5.50;82.10;;;;;;4944938;29;20356;-77
2021/03/05 12:30:14;;;;;;;;;;;5.40;82.30;;;;;;4945909;28;19965;-77
2021/03/05 12:32:42;;;;;;;;;;;5.40;82.60;;;;;;4948018;28;19922;-76
2021/03/05 12:35:10;;;;;;;;;;;5.40;85.80;;;;;;4948186;28;20021;-73
2021/03/05 12:37:35;;;;;;;;;;;5.30;86.00;;;;;;4949348;28;19960;-73
2021/03/05 12:40:01;;;;;;;;;;;5.40;82.70;;;;;;4962741;28;19953;-77
2021/03/05 12:42:26;;;;;;;;;;;5.30;81.50;;;;;;4946434;29;19910;-76
2021/03/05 12:44:52;;;;;;;;;;;5.30;84.20;;;;;;4948386;28;19953;-76
2021/03/05 12:47:17;;;;;;;;;;;5.20;81.40;;;;;;4947582;29;19922;-76
2021/03/05 12:49:48;;;;;;;;;;;5.20;84.30;;;;;;4949139;28;19914;-76
2021/03/05 12:52:16;;;;;;;;;;;5.20;82.50;;;;;;4949645;29;20287;-77
2021/03/05 12:54:41;;;;;;;;;;;5.20;81.50;;;;;;4948598;29;19911;-76
2021/03/05 12:57:09;;;;;;;;;;;5.20;84.80;;;;;;4948499;28;19922;-76
2021/03/05 12:59:34;;;;;;;;;;;5.30;86.50;;;;;;4948298;28;19910;-77
2021/03/05 13:02:00;;;;;;;;;;;5.40;84.10;;;;;;4950166;29;19911;-77
2021/03/05 13:04:26;;;;;;;;;;;5.30;78.10;;;;;;4949337;28;20267;-77
2021/03/05 13:06:51;;;;;;;;;;;5.30;79.20;;;;;;4948877;28;19986;-77
2021/03/05 13:09:21;;;;;;;;;;;5.20;80.10;;;;;;4947740;29;20342;-77
2021/03/05 13:11:51;;;;;;;;;;;5.20;77.80;;;;;;4946675;28;19934;-77
2021/03/05 13:14:17;;;;;;;;;;;5.10;76.70;;;;;;4947642;29;19924;-77
2021/03/05 13:16:43;;;;;;;;;;;5.10;79.10;;;;;;4944114;28;20457;-77
2021/03/05 13:19:11;;;;;;;;;;;5.10;77.80;;;;;;4943831;29;19921;-77
2021/03/05 13:21:36;;;;;;;;;;;5.10;78.30;;;;;;4947140;28;19910;-77
2021/03/05 13:24:02;;;;;;;;;;;5.10;82.20;;;;;;4944154;29;19929;-77
2021/03/05 13:26:30;;;;;;;;;;;5.20;81.00;;;;;;4945736;28;19954;-77
2021/03/05 13:28:55;;;;;;;;;;;5.20;78.00;;;;;;4945231;28;19918;-77
2021/03/05 13:31:21;;;;;;;;;;;5.20;80.00;;;;;;4946974;29;20006;-77
2021/03/05 13:33:48;;;;;;;;;;;5.20;84.60;;;;;;4946360;28;20311;-77
2021/03/05 13:36:14;;;;;;;;;;;5.30;83.30;;;;;;4948513;29;19952;-77
2021/03/05 13:38:39;;;;;;;;;;;5.40;83.70;;;;;;4947187;28;20403;-77
2021/03/05 13:41:05;;;;;;;;;;;5.40;83.10;;;;;;4947068;28;20025;-77
2021/03/05 13:43:33;;;;;;;;;;;5.40;81.70;;;;;;4947365;28;19977;-77
2021/03/05 13:46:00;;;;;;;;;;;5.50;83.60;;;;;;4946500;28;19993;-77
2021/03/05 13:48:26;;;;;;;;;;;5.50;79.80;;;;;;4946858;28;20299;-77
2021/03/05 13:50:52;;;;;;;;;;;5.50;80.00;;;;;;4945303;29;19910;-76
2021/03/05 13:53:17;;;;;;;;;;;5.50;81.50;;;;;;4947612;28;20512;-76
2021/03/05 13:55:43;;;;;;;;;;;5.50;78.50;;;;;;4947743;28;19918;-77
2021/03/05 13:58:11;;;;;;;;;;;5.50;78.40;;;;;;4944172;29;19929;-77
2021/03/05 14:00:36;;;;;;;;;;;5.50;82.40;;;;;;4944750;28;20319;-77
2021/03/05 14:03:02;;;;;;;;;;;5.60;80.30;;;;;;4949467;28;19953;-77
2021/03/05 14:05:30;;;;;;;;;;;5.60;84.80;;;;;;4947819;29;19917;-77
2021/03/05 14:07:58;;;;;;;;;;;5.70;81.20;;;;;;4953166;28;19926;-77
2021/03/05 14:10:24;;;;;;;;;;;5.70;82.60;;;;;;4949902;28;19910;-77
2021/03/05 14:12:50;;;;;;;;;;;5.70;78.60;;;;;;4949239;28;19914;-77
2021/03/05 14:15:15;;;;;;;;;;;5.70;81.20;;;;;;4951705;29;19965;-77
2021/03/05 14:17:41;;;;;;;;;;;5.70;81.60;;;;;;4948273;28;19914;-76
2021/03/05 14:20:07;;;;;;;;;;;5.60;77.70;;;;;;4954539;28;19922;-76
2021/03/05 14:22:33;;;;;;;;;;;5.60;78.80;;;;;;4948804;28;20372;-76
2021/03/05 14:25:02;;;;;;;;;;;5.60;80.80;;;;;;4944894;29;19910;-76
2021/03/05 14:27:27;;;;;;;;;;;5.60;79.60;;;;;;4946923;29;20005;-76
2021/03/05 14:29:55;;;;;;;;;;;5.60;78.80;;;;;;4947328;28;20480;-76
2021/03/05 14:32:21;;;;;;;;;;;5.60;78.00;;;;;;4948506;29;20116;-76
2021/03/05 14:34:46;;;;;;;;;;;5.70;82.00;;;;;;4949566;28;19994;-76